sensor_id;sensor_type;location;lat;lon;timestamp;P1;durP1;ratioP1;P2;durP2;ratioP2
3447;SDS011;1738;49.500;17.736;2022-07-06T00:00:34;24.77;;;8.87;;
3447;SDS011;1738;49.500;17.736;2022-07-06T00:03:00;47.80;;;10.53;;
3447;SDS011;1738;49.500;17.736;2022-07-06T00:05:27;22.05;;;9.30;;
3447;SDS011;1738;49.500;17.736;2022-07-06T00:07:52;16.03;;;9.00;;
3447;SDS011;1738;49.500;17.736;2022-07-06T00:10:18;20.23;;;9.90;;
3447;SDS011;1738;49.500;17.736;2022-07-06T00:12:44;21.37;;;8.83;;
3447;SDS011;1738;49.500;17.736;2022-07-06T00:15:10;15.37;;;8.20;;
3447;SDS011;1738;49.500;17.736;2022-07-06T00:17:36;14.23;;;7.47;;
3447;SDS011;1738;49.500;17.736;2022-07-06T00:20:02;28.50;;;9.10;;
3447;SDS011;1738;49.500;17.736;2022-07-06T00:22:28;58.53;;;10.63;;
3447;SDS011;1738;49.500;17.736;2022-07-06T00:24:54;8.37;;;7.47;;
3447;SDS011;1738;49.500;17.736;2022-07-06T00:27:19;31.60;;;9.63;;
3447;SDS011;1738;49.500;17.736;2022-07-06T00:29:45;24.90;;;8.73;;
3447;SDS011;1738;49.500;17.736;2022-07-06T00:32:11;12.73;;;8.57;;
3447;SDS011;1738;49.500;17.736;2022-07-06T00:34:37;18.37;;;9.97;;
3447;SDS011;1738;49.500;17.736;2022-07-06T00:37:03;14.80;;;9.30;;
3447;SDS011;1738;49.500;17.736;2022-07-06T00:39:29;54.17;;;10.10;;
3447;SDS011;1738;49.500;17.736;2022-07-06T00:41:55;16.50;;;9.10;;
3447;SDS011;1738;49.500;17.736;2022-07-06T00:44:20;19.07;;;8.20;;
3447;SDS011;1738;49.500;17.736;2022-07-06T00:46:46;13.43;;;8.40;;
3447;SDS011;1738;49.500;17.736;2022-07-06T00:49:12;23.10;;;9.63;;
3447;SDS011;1738;49.500;17.736;2022-07-06T00:51:38;21.90;;;10.23;;
3447;SDS011;1738;49.500;17.736;2022-07-06T00:54:04;45.50;;;11.30;;
3447;SDS011;1738;49.500;17.736;2022-07-06T00:56:30;32.53;;;11.20;;
3447;SDS011;1738;49.500;17.736;2022-07-06T00:58:56;34.77;;;12.30;;
3447;SDS011;1738;49.500;17.736;2022-07-06T01:01:22;30.90;;;11.97;;
3447;SDS011;1738;49.500;17.736;2022-07-06T01:03:48;17.50;;;12.20;;
3447;SDS011;1738;49.500;17.736;2022-07-06T01:06:14;19.87;;;12.50;;
3447;SDS011;1738;49.500;17.736;2022-07-06T01:08:40;18.33;;;12.23;;
3447;SDS011;1738;49.500;17.736;2022-07-06T01:11:06;27.47;;;12.13;;
3447;SDS011;1738;49.500;17.736;2022-07-06T01:13:32;15.33;;;11.60;;
3447;SDS011;1738;49.500;17.736;2022-07-06T01:15:58;18.43;;;12.07;;
3447;SDS011;1738;49.500;17.736;2022-07-06T01:18:23;14.53;;;9.53;;
3447;SDS011;1738;49.500;17.736;2022-07-06T01:20:49;20.60;;;10.80;;
3447;SDS011;1738;49.500;17.736;2022-07-06T01:23:15;17.40;;;10.13;;
3447;SDS011;1738;49.500;17.736;2022-07-06T01:25:41;19.03;;;11.40;;
3447;SDS011;1738;49.500;17.736;2022-07-06T01:28:07;56.23;;;12.80;;
3447;SDS011;1738;49.500;17.736;2022-07-06T01:30:33;12.23;;;9.90;;
3447;SDS011;1738;49.500;17.736;2022-07-06T01:32:59;16.27;;;9.13;;
3447;SDS011;1738;49.500;17.736;2022-07-06T01:35:26;26.23;;;9.00;;
3447;SDS011;1738;49.500;17.736;2022-07-06T01:37:51;32.23;;;11.10;;
3447;SDS011;1738;49.500;17.736;2022-07-06T01:40:17;28.47;;;10.37;;
3447;SDS011;1738;49.500;17.736;2022-07-06T01:42:43;27.13;;;9.43;;
3447;SDS011;1738;49.500;17.736;2022-07-06T01:45:09;29.70;;;8.77;;
3447;SDS011;1738;49.500;17.736;2022-07-06T01:47:35;28.77;;;8.80;;
3447;SDS011;1738;49.500;17.736;2022-07-06T01:50:03;21.07;;;10.20;;
3447;SDS011;1738;49.500;17.736;2022-07-06T01:52:27;40.53;;;11.20;;
3447;SDS011;1738;49.500;17.736;2022-07-06T01:54:53;36.93;;;11.97;;
3447;SDS011;1738;49.500;17.736;2022-07-06T01:57:18;31.17;;;12.70;;
3447;SDS011;1738;49.500;17.736;2022-07-06T01:59:44;29.37;;;11.33;;
3447;SDS011;1738;49.500;17.736;2022-07-06T02:02:10;19.93;;;10.43;;
3447;SDS011;1738;49.500;17.736;2022-07-06T02:04:36;32.63;;;11.77;;
3447;SDS011;1738;49.500;17.736;2022-07-06T02:07:02;23.50;;;10.27;;
3447;SDS011;1738;49.500;17.736;2022-07-06T02:09:28;28.50;;;11.40;;
3447;SDS011;1738;49.500;17.736;2022-07-06T02:11:54;24.03;;;11.10;;
3447;SDS011;1738;49.500;17.736;2022-07-06T02:14:20;20.73;;;11.17;;
3447;SDS011;1738;49.500;17.736;2022-07-06T02:16:46;53.93;;;12.67;;
3447;SDS011;1738;49.500;17.736;2022-07-06T02:19:12;44.93;;;12.97;;
3447;SDS011;1738;49.500;17.736;2022-07-06T02:21:38;54.80;;;13.90;;
3447;SDS011;1738;49.500;17.736;2022-07-06T02:24:04;35.30;;;13.00;;
3447;SDS011;1738;49.500;17.736;2022-07-06T02:26:30;46.37;;;13.67;;
3447;SDS011;1738;49.500;17.736;2022-07-06T02:28:56;29.00;;;12.57;;
3447;SDS011;1738;49.500;17.736;2022-07-06T02:31:21;48.07;;;12.43;;
3447;SDS011;1738;49.500;17.736;2022-07-06T02:33:47;37.33;;;12.80;;
3447;SDS011;1738;49.500;17.736;2022-07-06T02:36:13;51.67;;;11.30;;
3447;SDS011;1738;49.500;17.736;2022-07-06T02:38:39;34.90;;;12.60;;
3447;SDS011;1738;49.500;17.736;2022-07-06T02:41:05;39.70;;;13.33;;
3447;SDS011;1738;49.500;17.736;2022-07-06T02:43:31;63.00;;;14.30;;
3447;SDS011;1738;49.500;17.736;2022-07-06T02:45:56;60.00;;;13.90;;
3447;SDS011;1738;49.500;17.736;2022-07-06T02:48:22;52.40;;;13.63;;
3447;SDS011;1738;49.500;17.736;2022-07-06T02:50:48;60.67;;;14.40;;
3447;SDS011;1738;49.500;17.736;2022-07-06T02:53:14;37.50;;;12.80;;
3447;SDS011;1738;49.500;17.736;2022-07-06T02:55:40;31.10;;;12.77;;
3447;SDS011;1738;49.500;17.736;2022-07-06T02:58:06;46.13;;;13.77;;
3447;SDS011;1738;49.500;17.736;2022-07-06T03:00:32;55.13;;;14.10;;
3447;SDS011;1738;49.500;17.736;2022-07-06T03:02:57;57.83;;;15.00;;
3447;SDS011;1738;49.500;17.736;2022-07-06T03:05:24;80.70;;;15.00;;
3447;SDS011;1738;49.500;17.736;2022-07-06T03:07:50;48.83;;;14.50;;
3447;SDS011;1738;49.500;17.736;2022-07-06T03:10:15;27.03;;;13.63;;
3447;SDS011;1738;49.500;17.736;2022-07-06T03:12:41;29.20;;;14.00;;
3447;SDS011;1738;49.500;17.736;2022-07-06T03:15:07;37.47;;;12.73;;
3447;SDS011;1738;49.500;17.736;2022-07-06T03:17:36;21.90;;;10.40;;
3447;SDS011;1738;49.500;17.736;2022-07-06T03:20:01;33.97;;;12.33;;
3447;SDS011;1738;49.500;17.736;2022-07-06T03:22:28;26.93;;;11.27;;
3447;SDS011;1738;49.500;17.736;2022-07-06T03:24:54;21.27;;;10.27;;
3447;SDS011;1738;49.500;17.736;2022-07-06T03:27:20;33.67;;;11.17;;
3447;SDS011;1738;49.500;17.736;2022-07-06T03:29:46;21.73;;;9.33;;
3447;SDS011;1738;49.500;17.736;2022-07-06T03:32:12;19.83;;;10.23;;
3447;SDS011;1738;49.500;17.736;2022-07-06T03:34:38;40.93;;;11.37;;
3447;SDS011;1738;49.500;17.736;2022-07-06T03:37:04;37.47;;;10.73;;
3447;SDS011;1738;49.500;17.736;2022-07-06T03:39:29;30.83;;;11.30;;
3447;SDS011;1738;49.500;17.736;2022-07-06T03:41:55;36.60;;;12.03;;
3447;SDS011;1738;49.500;17.736;2022-07-06T03:44:21;28.50;;;10.97;;
3447;SDS011;1738;49.500;17.736;2022-07-06T03:46:47;35.23;;;11.70;;
3447;SDS011;1738;49.500;17.736;2022-07-06T03:49:13;21.50;;;11.40;;
3447;SDS011;1738;49.500;17.736;2022-07-06T03:51:39;33.83;;;12.37;;
3447;SDS011;1738;49.500;17.736;2022-07-06T03:54:05;20.50;;;12.30;;
3447;SDS011;1738;49.500;17.736;2022-07-06T03:56:30;42.03;;;13.43;;
3447;SDS011;1738;49.500;17.736;2022-07-06T03:58:57;36.43;;;17.00;;
3447;SDS011;1738;49.500;17.736;2022-07-06T04:01:22;29.10;;;17.90;;
3447;SDS011;1738;49.500;17.736;2022-07-06T04:03:48;31.43;;;18.80;;
3447;SDS011;1738;49.500;17.736;2022-07-06T04:06:14;27.00;;;16.03;;
3447;SDS011;1738;49.500;17.736;2022-07-06T04:08:40;34.17;;;18.33;;
3447;SDS011;1738;49.500;17.736;2022-07-06T04:11:06;29.83;;;17.43;;
3447;SDS011;1738;49.500;17.736;2022-07-06T04:13:32;43.30;;;21.57;;
3447;SDS011;1738;49.500;17.736;2022-07-06T04:15:57;36.53;;;20.60;;
3447;SDS011;1738;49.500;17.736;2022-07-06T04:18:23;52.40;;;22.27;;
3447;SDS011;1738;49.500;17.736;2022-07-06T04:20:49;45.87;;;23.43;;
3447;SDS011;1738;49.500;17.736;2022-07-06T04:23:15;46.97;;;23.97;;
3447;SDS011;1738;49.500;17.736;2022-07-06T04:25:41;62.70;;;25.17;;
3447;SDS011;1738;49.500;17.736;2022-07-06T04:28:07;52.70;;;27.97;;
3447;SDS011;1738;49.500;17.736;2022-07-06T04:30:33;57.10;;;27.80;;
3447;SDS011;1738;49.500;17.736;2022-07-06T04:32:59;48.63;;;27.97;;
3447;SDS011;1738;49.500;17.736;2022-07-06T04:35:24;54.93;;;27.60;;
3447;SDS011;1738;49.500;17.736;2022-07-06T04:37:50;62.03;;;31.97;;
3447;SDS011;1738;49.500;17.736;2022-07-06T04:40:16;78.97;;;33.13;;
3447;SDS011;1738;49.500;17.736;2022-07-06T04:42:42;62.40;;;32.53;;
3447;SDS011;1738;49.500;17.736;2022-07-06T04:45:09;69.60;;;36.30;;
3447;SDS011;1738;49.500;17.736;2022-07-06T04:47:35;72.00;;;36.38;;
3447;SDS011;1738;49.500;17.736;2022-07-06T04:50:01;67.73;;;32.67;;
3447;SDS011;1738;49.500;17.736;2022-07-06T04:52:26;62.73;;;34.30;;
3447;SDS011;1738;49.500;17.736;2022-07-06T04:54:53;70.27;;;35.50;;
3447;SDS011;1738;49.500;17.736;2022-07-06T04:57:18;66.53;;;35.50;;
3447;SDS011;1738;49.500;17.736;2022-07-06T04:59:44;82.40;;;34.93;;
3447;SDS011;1738;49.500;17.736;2022-07-06T05:02:10;61.45;;;36.15;;
3447;SDS011;1738;49.500;17.736;2022-07-06T05:04:36;72.70;;;37.47;;
3447;SDS011;1738;49.500;17.736;2022-07-06T05:07:02;87.40;;;40.63;;
3447;SDS011;1738;49.500;17.736;2022-07-06T05:09:28;80.50;;;40.90;;
3447;SDS011;1738;49.500;17.736;2022-07-06T05:11:53;81.47;;;43.10;;
3447;SDS011;1738;49.500;17.736;2022-07-06T05:14:19;72.50;;;39.23;;
3447;SDS011;1738;49.500;17.736;2022-07-06T05:16:45;78.43;;;42.27;;
3447;SDS011;1738;49.500;17.736;2022-07-06T05:19:12;68.10;;;38.87;;
3447;SDS011;1738;49.500;17.736;2022-07-06T05:21:38;64.40;;;38.50;;
3447;SDS011;1738;49.500;17.736;2022-07-06T05:24:04;56.57;;;35.80;;
3447;SDS011;1738;49.500;17.736;2022-07-06T05:26:30;59.63;;;37.67;;
3447;SDS011;1738;49.500;17.736;2022-07-06T05:28:56;64.47;;;37.43;;
3447;SDS011;1738;49.500;17.736;2022-07-06T05:31:22;61.77;;;37.13;;
3447;SDS011;1738;49.500;17.736;2022-07-06T05:33:49;53.70;;;33.57;;
3447;SDS011;1738;49.500;17.736;2022-07-06T05:36:15;56.87;;;37.20;;
3447;SDS011;1738;49.500;17.736;2022-07-06T05:38:41;53.93;;;31.50;;
3447;SDS011;1738;49.500;17.736;2022-07-06T05:41:07;49.40;;;32.30;;
3447;SDS011;1738;49.500;17.736;2022-07-06T05:43:35;50.03;;;30.70;;
3447;SDS011;1738;49.500;17.736;2022-07-06T05:45:59;40.50;;;29.63;;
3447;SDS011;1738;49.500;17.736;2022-07-06T05:48:24;45.10;;;32.20;;
3447;SDS011;1738;49.500;17.736;2022-07-06T05:50:56;43.83;;;26.13;;
3447;SDS011;1738;49.500;17.736;2022-07-06T05:53:23;30.23;;;25.08;;
3447;SDS011;1738;49.500;17.736;2022-07-06T05:55:48;35.77;;;24.03;;
3447;SDS011;1738;49.500;17.736;2022-07-06T05:58:14;28.70;;;23.30;;
3447;SDS011;1738;49.500;17.736;2022-07-06T06:00:40;32.63;;;24.75;;
3447;SDS011;1738;49.500;17.736;2022-07-06T06:03:06;31.10;;;22.87;;
3447;SDS011;1738;49.500;17.736;2022-07-06T06:05:32;26.80;;;23.00;;
3447;SDS011;1738;49.500;17.736;2022-07-06T06:07:58;28.23;;;21.87;;
3447;SDS011;1738;49.500;17.736;2022-07-06T06:10:24;31.63;;;22.20;;
3447;SDS011;1738;49.500;17.736;2022-07-06T06:12:51;28.63;;;19.80;;
3447;SDS011;1738;49.500;17.736;2022-07-06T06:15:17;19.40;;;17.30;;
3447;SDS011;1738;49.500;17.736;2022-07-06T06:17:43;25.53;;;16.50;;
3447;SDS011;1738;49.500;17.736;2022-07-06T06:20:10;22.77;;;15.90;;
3447;SDS011;1738;49.500;17.736;2022-07-06T06:25:07;18.50;;;16.03;;
3447;SDS011;1738;49.500;17.736;2022-07-06T06:27:34;16.10;;;14.40;;
3447;SDS011;1738;49.500;17.736;2022-07-06T06:30:01;25.00;;;14.90;;
3447;SDS011;1738;49.500;17.736;2022-07-06T06:32:27;14.70;;;13.13;;
3447;SDS011;1738;49.500;17.736;2022-07-06T06:34:53;18.43;;;12.50;;
3447;SDS011;1738;49.500;17.736;2022-07-06T06:37:19;15.83;;;12.30;;
3447;SDS011;1738;49.500;17.736;2022-07-06T06:39:45;16.77;;;13.10;;
3447;SDS011;1738;49.500;17.736;2022-07-06T06:42:11;12.17;;;10.90;;
3447;SDS011;1738;49.500;17.736;2022-07-06T06:44:37;11.90;;;10.67;;
3447;SDS011;1738;49.500;17.736;2022-07-06T06:47:03;10.90;;;7.60;;
3447;SDS011;1738;49.500;17.736;2022-07-06T06:49:29;11.40;;;7.90;;
3447;SDS011;1738;49.500;17.736;2022-07-06T06:51:54;9.77;;;8.77;;
3447;SDS011;1738;49.500;17.736;2022-07-06T06:54:20;10.43;;;8.63;;
3447;SDS011;1738;49.500;17.736;2022-07-06T06:56:46;10.70;;;7.90;;
3447;SDS011;1738;49.500;17.736;2022-07-06T06:59:12;13.87;;;8.20;;
3447;SDS011;1738;49.500;17.736;2022-07-06T07:01:38;7.37;;;6.60;;
3447;SDS011;1738;49.500;17.736;2022-07-06T07:04:04;10.73;;;7.00;;
3447;SDS011;1738;49.500;17.736;2022-07-06T07:06:30;12.73;;;7.70;;
3447;SDS011;1738;49.500;17.736;2022-07-06T07:08:55;7.93;;;6.43;;
3447;SDS011;1738;49.500;17.736;2022-07-06T07:11:21;7.57;;;6.37;;
3447;SDS011;1738;49.500;17.736;2022-07-06T07:13:47;8.13;;;6.00;;
3447;SDS011;1738;49.500;17.736;2022-07-06T07:16:13;10.43;;;7.00;;
3447;SDS011;1738;49.500;17.736;2022-07-06T07:18:39;8.00;;;5.90;;
3447;SDS011;1738;49.500;17.736;2022-07-06T07:21:06;8.70;;;6.17;;
3447;SDS011;1738;49.500;17.736;2022-07-06T07:23:32;8.47;;;7.57;;
3447;SDS011;1738;49.500;17.736;2022-07-06T07:25:58;9.30;;;6.70;;
3447;SDS011;1738;49.500;17.736;2022-07-06T07:28:25;10.37;;;6.47;;
3447;SDS011;1738;49.500;17.736;2022-07-06T07:30:51;9.87;;;7.70;;
3447;SDS011;1738;49.500;17.736;2022-07-06T07:33:17;10.20;;;8.30;;
3447;SDS011;1738;49.500;17.736;2022-07-06T07:35:43;10.33;;;9.23;;
3447;SDS011;1738;49.500;17.736;2022-07-06T07:38:09;9.93;;;8.33;;
3447;SDS011;1738;49.500;17.736;2022-07-06T07:40:35;9.43;;;8.40;;
3447;SDS011;1738;49.500;17.736;2022-07-06T07:43:01;12.77;;;8.90;;
3447;SDS011;1738;49.500;17.736;2022-07-06T07:45:27;9.67;;;8.67;;
3447;SDS011;1738;49.500;17.736;2022-07-06T07:47:52;15.80;;;9.50;;
3447;SDS011;1738;49.500;17.736;2022-07-06T07:50:18;13.10;;;9.17;;
3447;SDS011;1738;49.500;17.736;2022-07-06T07:52:44;18.43;;;9.80;;
3447;SDS011;1738;49.500;17.736;2022-07-06T07:55:10;20.23;;;12.00;;
3447;SDS011;1738;49.500;17.736;2022-07-06T07:57:36;11.37;;;10.10;;
3447;SDS011;1738;49.500;17.736;2022-07-06T08:00:02;15.13;;;11.73;;
3447;SDS011;1738;49.500;17.736;2022-07-06T08:02:28;15.60;;;11.60;;
3447;SDS011;1738;49.500;17.736;2022-07-06T08:04:54;14.67;;;11.50;;
3447;SDS011;1738;49.500;17.736;2022-07-06T08:07:20;17.00;;;10.50;;
3447;SDS011;1738;49.500;17.736;2022-07-06T08:09:46;12.30;;;10.20;;
3447;SDS011;1738;49.500;17.736;2022-07-06T08:12:12;16.70;;;9.97;;
3447;SDS011;1738;49.500;17.736;2022-07-06T08:14:38;11.83;;;10.63;;
3447;SDS011;1738;49.500;17.736;2022-07-06T08:17:05;14.23;;;10.70;;
3447;SDS011;1738;49.500;17.736;2022-07-06T08:19:32;13.53;;;10.40;;
3447;SDS011;1738;49.500;17.736;2022-07-06T08:22:00;14.43;;;10.10;;
3447;SDS011;1738;49.500;17.736;2022-07-06T08:24:26;10.93;;;9.83;;
3447;SDS011;1738;49.500;17.736;2022-07-06T08:26:54;11.13;;;10.03;;
3447;SDS011;1738;49.500;17.736;2022-07-06T08:29:21;13.90;;;11.57;;
3447;SDS011;1738;49.500;17.736;2022-07-06T08:31:47;13.60;;;10.70;;
3447;SDS011;1738;49.500;17.736;2022-07-06T08:34:13;19.53;;;10.50;;
3447;SDS011;1738;49.500;17.736;2022-07-06T08:36:39;11.97;;;9.43;;
3447;SDS011;1738;49.500;17.736;2022-07-06T08:39:04;16.60;;;11.57;;
3447;SDS011;1738;49.500;17.736;2022-07-06T08:41:30;11.00;;;8.90;;
3447;SDS011;1738;49.500;17.736;2022-07-06T08:43:56;10.47;;;8.10;;
3447;SDS011;1738;49.500;17.736;2022-07-06T08:46:23;12.70;;;7.67;;
3447;SDS011;1738;49.500;17.736;2022-07-06T08:48:49;13.33;;;7.60;;
3447;SDS011;1738;49.500;17.736;2022-07-06T08:51:14;14.20;;;7.30;;
3447;SDS011;1738;49.500;17.736;2022-07-06T08:53:41;15.90;;;6.63;;
3447;SDS011;1738;49.500;17.736;2022-07-06T08:56:07;15.37;;;6.40;;
3447;SDS011;1738;49.500;17.736;2022-07-06T08:58:32;9.57;;;6.10;;
3447;SDS011;1738;49.500;17.736;2022-07-06T09:00:58;7.70;;;5.10;;
3447;SDS011;1738;49.500;17.736;2022-07-06T09:03:24;5.30;;;4.73;;
3447;SDS011;1738;49.500;17.736;2022-07-06T09:05:50;5.70;;;3.73;;
3447;SDS011;1738;49.500;17.736;2022-07-06T09:08:16;4.93;;;4.37;;
3447;SDS011;1738;49.500;17.736;2022-07-06T09:10:42;9.33;;;4.17;;
3447;SDS011;1738;49.500;17.736;2022-07-06T09:13:08;4.80;;;3.60;;
3447;SDS011;1738;49.500;17.736;2022-07-06T09:15:34;7.63;;;4.37;;
3447;SDS011;1738;49.500;17.736;2022-07-06T09:17:59;10.33;;;7.93;;
3447;SDS011;1738;49.500;17.736;2022-07-06T09:20:25;5.97;;;4.83;;
3447;SDS011;1738;49.500;17.736;2022-07-06T09:22:53;10.57;;;9.60;;
3447;SDS011;1738;49.500;17.736;2022-07-06T09:25:17;4.80;;;4.30;;
3447;SDS011;1738;49.500;17.736;2022-07-06T09:27:44;5.53;;;4.30;;
3447;SDS011;1738;49.500;17.736;2022-07-06T09:30:09;5.90;;;4.87;;
3447;SDS011;1738;49.500;17.736;2022-07-06T09:32:39;4.40;;;4.00;;
3447;SDS011;1738;49.500;17.736;2022-07-06T09:35:04;7.60;;;4.13;;
3447;SDS011;1738;49.500;17.736;2022-07-06T09:37:30;6.47;;;4.87;;
3447;SDS011;1738;49.500;17.736;2022-07-06T09:39:56;6.13;;;4.57;;
3447;SDS011;1738;49.500;17.736;2022-07-06T09:42:25;7.30;;;4.60;;
3447;SDS011;1738;49.500;17.736;2022-07-06T09:44:50;5.50;;;4.07;;
3447;SDS011;1738;49.500;17.736;2022-07-06T09:47:16;10.10;;;6.33;;
3447;SDS011;1738;49.500;17.736;2022-07-06T09:49:42;7.27;;;5.60;;
3447;SDS011;1738;49.500;17.736;2022-07-06T09:52:09;5.57;;;4.90;;
3447;SDS011;1738;49.500;17.736;2022-07-06T09:54:34;6.00;;;5.40;;
3447;SDS011;1738;49.500;17.736;2022-07-06T09:57:01;5.20;;;4.70;;
3447;SDS011;1738;49.500;17.736;2022-07-06T09:59:28;16.97;;;5.57;;
3447;SDS011;1738;49.500;17.736;2022-07-06T10:01:55;10.43;;;6.40;;
3447;SDS011;1738;49.500;17.736;2022-07-06T10:04:22;4.97;;;4.47;;
3447;SDS011;1738;49.500;17.736;2022-07-06T10:06:48;5.27;;;4.77;;
3447;SDS011;1738;49.500;17.736;2022-07-06T10:09:14;7.00;;;5.40;;
3447;SDS011;1738;49.500;17.736;2022-07-06T10:11:41;5.93;;;4.53;;
3447;SDS011;1738;49.500;17.736;2022-07-06T10:14:06;8.27;;;4.00;;
3447;SDS011;1738;49.500;17.736;2022-07-06T10:16:33;6.93;;;3.77;;
3447;SDS011;1738;49.500;17.736;2022-07-06T10:18:57;6.90;;;4.43;;
3447;SDS011;1738;49.500;17.736;2022-07-06T10:21:23;4.50;;;3.60;;
3447;SDS011;1738;49.500;17.736;2022-07-06T10:23:50;4.07;;;3.67;;
3447;SDS011;1738;49.500;17.736;2022-07-06T10:26:16;4.37;;;3.97;;
3447;SDS011;1738;49.500;17.736;2022-07-06T10:28:42;4.67;;;4.00;;
3447;SDS011;1738;49.500;17.736;2022-07-06T10:31:08;4.47;;;3.50;;
3447;SDS011;1738;49.500;17.736;2022-07-06T10:33:34;4.80;;;4.20;;
3447;SDS011;1738;49.500;17.736;2022-07-06T10:36:00;3.33;;;2.97;;
3447;SDS011;1738;49.500;17.736;2022-07-06T10:38:33;6.27;;;4.07;;
3447;SDS011;1738;49.500;17.736;2022-07-06T10:41:02;4.07;;;3.57;;
3447;SDS011;1738;49.500;17.736;2022-07-06T10:43:31;5.57;;;4.03;;
3447;SDS011;1738;49.500;17.736;2022-07-06T10:45:56;4.07;;;2.90;;
3447;SDS011;1738;49.500;17.736;2022-07-06T10:48:22;3.30;;;2.63;;
3447;SDS011;1738;49.500;17.736;2022-07-06T10:50:51;4.23;;;3.47;;
3447;SDS011;1738;49.500;17.736;2022-07-06T10:53:16;4.83;;;2.90;;
3447;SDS011;1738;49.500;17.736;2022-07-06T10:55:43;4.97;;;3.67;;
3447;SDS011;1738;49.500;17.736;2022-07-06T10:58:08;4.00;;;3.43;;
3447;SDS011;1738;49.500;17.736;2022-07-06T11:05:39;6.53;;;3.53;;
3447;SDS011;1738;49.500;17.736;2022-07-06T11:08:05;5.83;;;3.73;;
3447;SDS011;1738;49.500;17.736;2022-07-06T11:10:45;3.80;;;3.07;;
3447;SDS011;1738;49.500;17.736;2022-07-06T11:12:59;25.03;;;4.90;;
3447;SDS011;1738;49.500;17.736;2022-07-06T11:18:15;4.20;;;3.20;;
3447;SDS011;1738;49.500;17.736;2022-07-06T11:20:41;4.13;;;3.50;;
3447;SDS011;1738;49.500;17.736;2022-07-06T11:23:06;5.23;;;4.73;;
3447;SDS011;1738;49.500;17.736;2022-07-06T11:25:32;17.43;;;9.27;;
3447;SDS011;1738;49.500;17.736;2022-07-06T11:27:59;5.23;;;4.20;;
3447;SDS011;1738;49.500;17.736;2022-07-06T11:30:26;5.40;;;4.67;;
3447;SDS011;1738;49.500;17.736;2022-07-06T11:32:52;5.13;;;3.27;;
3447;SDS011;1738;49.500;17.736;2022-07-06T11:35:21;4.37;;;3.60;;
3447;SDS011;1738;49.500;17.736;2022-07-06T11:37:46;4.00;;;2.63;;
3447;SDS011;1738;49.500;17.736;2022-07-06T11:40:12;5.07;;;4.03;;
3447;SDS011;1738;49.500;17.736;2022-07-06T11:42:39;3.70;;;3.30;;
3447;SDS011;1738;49.500;17.736;2022-07-06T11:45:05;3.90;;;3.50;;
3447;SDS011;1738;49.500;17.736;2022-07-06T11:47:31;4.97;;;3.30;;
3447;SDS011;1738;49.500;17.736;2022-07-06T11:49:57;4.37;;;2.83;;
3447;SDS011;1738;49.500;17.736;2022-07-06T11:52:23;4.90;;;2.33;;
3447;SDS011;1738;49.500;17.736;2022-07-06T11:54:49;3.70;;;3.07;;
3447;SDS011;1738;49.500;17.736;2022-07-06T11:57:15;3.00;;;2.60;;
3447;SDS011;1738;49.500;17.736;2022-07-06T11:59:41;4.67;;;3.23;;
3447;SDS011;1738;49.500;17.736;2022-07-06T12:02:07;3.20;;;2.60;;
3447;SDS011;1738;49.500;17.736;2022-07-06T12:04:33;3.07;;;2.10;;
3447;SDS011;1738;49.500;17.736;2022-07-06T12:06:59;6.90;;;2.60;;
3447;SDS011;1738;49.500;17.736;2022-07-06T12:09:25;3.70;;;2.37;;
3447;SDS011;1738;49.500;17.736;2022-07-06T12:11:51;3.60;;;2.10;;
3447;SDS011;1738;49.500;17.736;2022-07-06T12:14:17;4.83;;;2.37;;
3447;SDS011;1738;49.500;17.736;2022-07-06T12:16:42;3.80;;;2.80;;
3447;SDS011;1738;49.500;17.736;2022-07-06T12:19:08;2.90;;;2.20;;
3447;SDS011;1738;49.500;17.736;2022-07-06T12:21:34;4.30;;;2.17;;
3447;SDS011;1738;49.500;17.736;2022-07-06T12:24:00;2.67;;;1.87;;
3447;SDS011;1738;49.500;17.736;2022-07-06T12:26:27;4.23;;;2.30;;
3447;SDS011;1738;49.500;17.736;2022-07-06T12:33:56;3.80;;;2.33;;
3447;SDS011;1738;49.500;17.736;2022-07-06T12:36:22;3.53;;;2.60;;
3447;SDS011;1738;49.500;17.736;2022-07-06T12:38:48;3.33;;;2.10;;
3447;SDS011;1738;49.500;17.736;2022-07-06T12:43:45;3.13;;;1.90;;
3447;SDS011;1738;49.500;17.736;2022-07-06T12:51:14;2.80;;;2.43;;
3447;SDS011;1738;49.500;17.736;2022-07-06T12:53:40;5.23;;;2.80;;
3447;SDS011;1738;49.500;17.736;2022-07-06T12:56:08;3.53;;;2.40;;
3447;SDS011;1738;49.500;17.736;2022-07-06T12:58:33;4.87;;;2.30;;
3447;SDS011;1738;49.500;17.736;2022-07-06T13:00:59;5.30;;;2.70;;
3447;SDS011;1738;49.500;17.736;2022-07-06T13:03:24;4.20;;;2.80;;
3447;SDS011;1738;49.500;17.736;2022-07-06T13:05:50;3.23;;;2.40;;
3447;SDS011;1738;49.500;17.736;2022-07-06T13:08:16;3.87;;;3.30;;
3447;SDS011;1738;49.500;17.736;2022-07-06T13:10:42;5.13;;;2.10;;
3447;SDS011;1738;49.500;17.736;2022-07-06T13:13:08;3.70;;;2.20;;
3447;SDS011;1738;49.500;17.736;2022-07-06T13:15:34;3.40;;;1.90;;
3447;SDS011;1738;49.500;17.736;2022-07-06T13:18:00;3.35;;;2.22;;
3447;SDS011;1738;49.500;17.736;2022-07-06T13:20:25;3.83;;;1.93;;
3447;SDS011;1738;49.500;17.736;2022-07-06T13:22:51;3.80;;;2.33;;
3447;SDS011;1738;49.500;17.736;2022-07-06T13:25:17;3.03;;;2.30;;
3447;SDS011;1738;49.500;17.736;2022-07-06T13:27:43;3.00;;;2.40;;
3447;SDS011;1738;49.500;17.736;2022-07-06T13:30:09;2.93;;;1.77;;
3447;SDS011;1738;49.500;17.736;2022-07-06T13:32:35;2.70;;;1.87;;
3447;SDS011;1738;49.500;17.736;2022-07-06T13:35:01;4.20;;;2.10;;
3447;SDS011;1738;49.500;17.736;2022-07-06T13:37:27;2.73;;;2.17;;
3447;SDS011;1738;49.500;17.736;2022-07-06T13:39:53;3.10;;;2.00;;
3447;SDS011;1738;49.500;17.736;2022-07-06T13:42:18;3.13;;;2.10;;
3447;SDS011;1738;49.500;17.736;2022-07-06T13:44:44;3.50;;;2.30;;
3447;SDS011;1738;49.500;17.736;2022-07-06T13:47:10;4.37;;;2.23;;
3447;SDS011;1738;49.500;17.736;2022-07-06T13:49:36;3.60;;;2.07;;
3447;SDS011;1738;49.500;17.736;2022-07-06T13:52:02;2.73;;;1.93;;
3447;SDS011;1738;49.500;17.736;2022-07-06T13:54:28;7.27;;;2.67;;
3447;SDS011;1738;49.500;17.736;2022-07-06T13:56:54;5.17;;;2.33;;
3447;SDS011;1738;49.500;17.736;2022-07-06T13:59:20;3.53;;;2.53;;
3447;SDS011;1738;49.500;17.736;2022-07-06T14:01:46;3.53;;;2.40;;
3447;SDS011;1738;49.500;17.736;2022-07-06T14:04:12;3.37;;;2.50;;
3447;SDS011;1738;49.500;17.736;2022-07-06T14:06:38;3.70;;;2.20;;
3447;SDS011;1738;49.500;17.736;2022-07-06T14:09:04;3.03;;;2.50;;
3447;SDS011;1738;49.500;17.736;2022-07-06T14:11:30;3.90;;;2.20;;
3447;SDS011;1738;49.500;17.736;2022-07-06T14:13:57;3.37;;;2.30;;
3447;SDS011;1738;49.500;17.736;2022-07-06T14:16:23;2.80;;;2.13;;
3447;SDS011;1738;49.500;17.736;2022-07-06T14:18:49;9.70;;;2.57;;
3447;SDS011;1738;49.500;17.736;2022-07-06T14:21:16;2.60;;;1.90;;
3447;SDS011;1738;49.500;17.736;2022-07-06T14:23:42;2.83;;;2.30;;
3447;SDS011;1738;49.500;17.736;2022-07-06T14:26:08;4.43;;;2.47;;
3447;SDS011;1738;49.500;17.736;2022-07-06T14:28:34;4.53;;;2.77;;
3447;SDS011;1738;49.500;17.736;2022-07-06T14:31:00;5.40;;;4.00;;
3447;SDS011;1738;49.500;17.736;2022-07-06T14:33:26;4.83;;;2.90;;
3447;SDS011;1738;49.500;17.736;2022-07-06T14:35:52;3.47;;;2.53;;
3447;SDS011;1738;49.500;17.736;2022-07-06T14:38:18;3.72;;;2.30;;
3447;SDS011;1738;49.500;17.736;2022-07-06T14:40:44;3.23;;;2.40;;
3447;SDS011;1738;49.500;17.736;2022-07-06T14:43:09;16.87;;;3.37;;
3447;SDS011;1738;49.500;17.736;2022-07-06T14:45:35;7.63;;;2.10;;
3447;SDS011;1738;49.500;17.736;2022-07-06T14:48:01;6.70;;;2.37;;
3447;SDS011;1738;49.500;17.736;2022-07-06T14:50:27;4.60;;;2.60;;
3447;SDS011;1738;49.500;17.736;2022-07-06T14:52:53;2.80;;;2.10;;
3447;SDS011;1738;49.500;17.736;2022-07-06T14:55:22;2.90;;;2.03;;
3447;SDS011;1738;49.500;17.736;2022-07-06T14:57:47;4.00;;;2.23;;
3447;SDS011;1738;49.500;17.736;2022-07-06T15:00:13;3.70;;;2.10;;
3447;SDS011;1738;49.500;17.736;2022-07-06T15:02:39;3.43;;;2.03;;